Airfield :







YOU CAN JOIN US ON...

 
LOGIN :

Register | Disclaimer

   EN    FR    IT 

 









Legend :    VFR   Marginal VFR   IFR   Intensive IFR   Very Intensive IFR
Visi :
Ceiling :
>= 8 km
>= 3000ft
5 to 8 km
1000 to 3000 ft
1500m to 5 km
500 to 1000 ft
800 to 1500m
200 to 500 ft
< 800m
< 200 ft
Symbols :   Thunderstorms  Fog  Heavy snow  Heavy precipitations  Wind > 20 kt






- Airport Elevation : 122 ft
- IATA code : YTQ


CYTQ - Tasiujaq

CURRENT METAR :
  • 292000Z 28022KT 12SM DRSN FEW060 BKN090 M20/M23 A3009 RMK SC1AC5 SLP195

EXPIRED METARs :
  • 291900Z 27008G18KT 15SM DRSN BKN100 BKN240 M20/M24 A3012 RMK AC5CI1 PRESRR SLP205
  • 291800Z 25014KT 15SM DRSN FEW050 BKN085 BKN240 M19/M24 A3012 RMK SC1AC4CI1 SLP206

TAF AMD TAF CYTQ
Valid from the 29 at 17:00 until the 29 at 22:00 UTC


291706Z 2917/2922 25015KT P6SM BKN080 RMK NXT FCST WILL BE ISSUED AT 301445Z



MET'MAP, your aeronautical weather chart ! - Copyright ORBIFLY December 2007 - Disclaimer

ORBIFLY MET'MAP TEAM :

Programming & Development : Alexandra Zaïnal
Concept & original design : Baudouin d'Aumeries
Assistance for programming : Marc-Olivier Méhu
Technical & hardware support : Manuel Goepfert

Contact : metmap@orbifly.com




SOURCES & CREDITS :

   NOAA